createdAt,value
2017-09-06T00:01:08.116Z,98.40
2017-09-06T00:03:35.652Z,98.30
2017-09-06T00:06:03.199Z,98.50
2017-09-06T00:08:30.748Z,98.10
2017-09-06T00:10:58.203Z,98.30
2017-09-06T00:13:25.832Z,97.90
2017-09-06T00:15:53.376Z,97.40
2017-09-06T00:18:20.921Z,97.40
2017-09-06T00:20:48.464Z,97.20
2017-09-06T00:23:16.003Z,97.30
2017-09-06T00:25:43.548Z,96.80
2017-09-06T00:28:10.999Z,97.00
2017-09-06T00:30:38.532Z,97.30
2017-09-06T00:33:06.080Z,97.00
2017-09-06T00:35:33.528Z,96.90
2017-09-06T00:38:01.060Z,97.00
2017-09-06T00:40:28.511Z,96.70
2017-09-06T00:42:56.048Z,96.70
2017-09-06T00:45:23.587Z,96.80
2017-09-06T00:47:51.231Z,96.90
2017-09-06T00:50:18.776Z,97.00
2017-09-06T00:52:46.325Z,97.00
2017-09-06T00:55:14.068Z,96.90
2017-09-06T00:57:41.616Z,97.10
2017-09-06T01:00:09.063Z,97.30
2017-09-06T01:02:36.527Z,97.20
2017-09-06T01:05:04.048Z,97.30
2017-09-06T01:07:31.500Z,97.30
2017-09-06T01:09:59.009Z,97.30
2017-09-06T01:12:26.467Z,97.40
2017-09-06T01:14:54.211Z,97.30
2017-09-06T01:17:21.664Z,97.50
2017-09-06T01:19:49.120Z,97.60
2017-09-06T01:22:16.646Z,97.90
2017-09-06T01:24:44.129Z,97.90
2017-09-06T01:27:11.580Z,98.20
2017-09-06T01:29:39.063Z,98.10
2017-09-06T01:32:06.521Z,98.40
2017-09-06T01:34:33.976Z,98.50
2017-09-06T01:37:02.312Z,98.60
2017-09-06T01:39:29.852Z,98.60
2017-09-06T01:41:57.396Z,98.60
2017-09-06T01:44:24.943Z,98.60
2017-09-06T01:46:52.694Z,98.60
2017-09-06T01:49:20.236Z,98.70
2017-09-06T01:51:47.777Z,98.90
2017-09-06T01:54:15.528Z,99.10
2017-09-06T01:56:43.168Z,99.20
2017-09-06T01:59:10.714Z,99.30
2017-09-06T02:01:38.255Z,99.40
2017-09-06T02:04:05.724Z,99.60
2017-09-06T02:06:33.245Z,99.70
2017-09-06T02:09:00.696Z,99.70
2017-09-06T02:11:28.232Z,99.80
2017-09-06T02:13:55.770Z,99.80
2017-09-06T02:16:23.316Z,99.90
2017-09-06T02:18:50.856Z,99.90
2017-09-06T02:21:18.400Z,99.90
2017-09-06T02:23:45.950Z,99.90
2017-09-06T02:26:13.489Z,99.90
2017-09-06T02:28:41.135Z,99.90
2017-09-06T02:31:08.675Z,99.90
2017-09-06T02:33:36.139Z,99.90
2017-09-06T02:36:03.591Z,99.90
2017-09-06T02:38:31.105Z,99.90
2017-09-06T02:40:58.644Z,99.90
2017-09-06T02:43:26.191Z,99.90
2017-09-06T02:45:53.736Z,99.90
2017-09-06T02:48:21.276Z,99.90
2017-09-06T02:50:48.821Z,99.90
2017-09-06T02:53:16.284Z,99.90
2017-09-06T02:55:43.807Z,99.90
2017-09-06T02:58:11.260Z,99.90
2017-09-06T03:00:38.772Z,99.90
2017-09-06T03:03:06.367Z,99.90
2017-09-06T03:05:33.820Z,99.90
2017-09-06T03:08:01.320Z,99.90
2017-09-06T03:10:28.860Z,99.90
2017-09-06T03:12:56.404Z,99.90
2017-09-06T03:15:23.949Z,99.90
2017-09-06T03:17:51.492Z,99.90
2017-09-06T03:20:18.963Z,99.90
2017-09-06T03:22:46.423Z,99.90
2017-09-06T03:25:13.945Z,99.90
2017-09-06T03:27:41.460Z,99.90
2017-09-06T03:30:09.005Z,99.90
2017-09-06T03:32:36.475Z,99.90
2017-09-06T03:35:03.987Z,99.90
2017-09-06T03:37:31.490Z,99.90
2017-09-06T03:39:58.971Z,99.90
2017-09-06T03:42:26.515Z,99.90
2017-09-06T03:44:54.069Z,99.90
2017-09-06T03:47:21.607Z,99.90
2017-09-06T03:49:49.073Z,99.90
2017-09-06T03:52:16.559Z,99.90
2017-09-06T03:54:44.136Z,99.90
2017-09-06T03:57:11.687Z,99.90
2017-09-06T03:59:39.204Z,99.90
2017-09-06T04:02:06.764Z,99.90
2017-09-06T04:04:34.304Z,99.90
2017-09-06T04:07:01.848Z,99.90
2017-09-06T04:09:29.397Z,99.90
2017-09-06T04:11:56.939Z,99.90
2017-09-06T04:14:24.486Z,99.90
2017-09-06T04:16:52.025Z,99.90
2017-09-06T04:19:19.572Z,99.90
2017-09-06T04:21:47.028Z,99.90
2017-09-06T04:24:14.551Z,99.90
2017-09-06T04:26:42.095Z,99.90
2017-09-06T04:29:09.641Z,99.90
2017-09-06T04:31:37.112Z,99.90
2017-09-06T04:34:04.627Z,99.90
2017-09-06T04:36:32.075Z,99.90
2017-09-06T04:38:59.604Z,99.90
2017-09-06T04:41:27.149Z,99.90
2017-09-06T04:43:54.722Z,99.90
2017-09-06T04:46:22.235Z,99.90
2017-09-06T04:48:49.696Z,99.90
2017-09-06T04:51:17.912Z,99.90
2017-09-06T04:53:45.382Z,99.90
2017-09-06T04:56:12.828Z,99.90
2017-09-06T04:58:40.315Z,99.90
2017-09-06T05:01:07.804Z,99.90
2017-09-06T05:03:35.253Z,99.90
2017-09-06T05:06:02.792Z,99.90
2017-09-06T05:08:30.244Z,99.90
2017-09-06T05:10:57.684Z,99.90
2017-09-06T05:13:25.136Z,99.90
2017-09-06T05:15:52.656Z,99.90
2017-09-06T05:18:20.205Z,99.90
2017-09-06T05:20:47.672Z,99.90
2017-09-06T05:23:15.187Z,99.90
2017-09-06T05:25:42.832Z,99.90
2017-09-06T05:28:10.376Z,99.90
2017-09-06T05:30:37.904Z,99.90
2017-09-06T05:33:05.539Z,99.90
2017-09-06T05:35:32.979Z,99.90
2017-09-06T05:38:00.448Z,99.90
2017-09-06T05:40:27.984Z,99.90
2017-09-06T05:42:55.432Z,99.90
2017-09-06T05:45:23.965Z,99.90
2017-09-06T05:47:52.259Z,99.90
2017-09-06T05:50:19.800Z,99.90
2017-09-06T05:52:47.275Z,99.90
2017-09-06T05:55:14.724Z,99.90
2017-09-06T05:57:42.172Z,99.90
2017-09-06T06:00:09.810Z,99.90
2017-09-06T06:02:37.412Z,99.90
2017-09-06T06:05:04.896Z,99.90
2017-09-06T06:07:32.384Z,99.90
2017-09-06T06:09:59.900Z,99.90
2017-09-06T06:12:27.425Z,99.90
2017-09-06T06:14:54.898Z,99.90
2017-09-06T06:17:22.348Z,99.90
2017-09-06T06:19:49.812Z,99.90
2017-09-06T06:22:17.385Z,99.90
2017-09-06T06:24:44.868Z,99.90
2017-09-06T06:27:12.412Z,99.90
2017-09-06T06:29:39.856Z,99.90
2017-09-06T06:32:07.296Z,99.90
2017-09-06T06:34:34.835Z,99.90
2017-09-06T06:37:02.389Z,99.90
2017-09-06T06:39:29.927Z,99.90
2017-09-06T06:41:57.476Z,99.90
2017-09-06T06:44:25.019Z,99.90
2017-09-06T06:46:52.472Z,99.90
2017-09-06T06:49:20.160Z,99.90
2017-09-06T06:51:47.607Z,99.90
2017-09-06T06:54:15.243Z,99.90
2017-09-06T06:56:42.787Z,99.90
2017-09-06T06:59:10.237Z,99.90
2017-09-06T07:01:37.772Z,99.90
2017-09-06T07:04:05.317Z,99.90
2017-09-06T07:06:32.860Z,99.90
2017-09-06T07:09:00.507Z,99.90
2017-09-06T07:11:27.960Z,99.90
2017-09-06T07:13:55.403Z,99.90
2017-09-06T07:16:23.140Z,99.90
2017-09-06T07:18:50.592Z,99.90
2017-09-06T07:21:18.064Z,99.90
2017-09-06T07:23:45.564Z,99.90
2017-09-06T07:26:13.104Z,99.90
2017-09-06T07:28:40.551Z,99.90
2017-09-06T07:31:08.003Z,99.90
2017-09-06T07:33:35.550Z,99.90
2017-09-06T07:36:03.079Z,99.90
2017-09-06T07:38:30.624Z,99.90
2017-09-06T07:40:58.164Z,99.90
2017-09-06T07:43:25.708Z,99.90
2017-09-06T07:45:53.168Z,99.90
2017-09-06T07:48:20.664Z,99.90
2017-09-06T07:50:48.928Z,99.90
2017-09-06T07:53:16.371Z,99.90
2017-09-06T07:55:44.004Z,99.90
2017-09-06T07:58:11.548Z,99.90
2017-09-06T08:00:39.128Z,99.90
2017-09-06T08:03:06.624Z,99.90
2017-09-06T08:05:34.093Z,99.90
2017-09-06T08:08:06.583Z,99.90
2017-09-06T08:10:34.084Z,99.90
2017-09-06T08:13:01.624Z,99.90
2017-09-06T08:15:29.280Z,99.90
2017-09-06T08:17:56.808Z,99.90
2017-09-06T08:20:24.259Z,99.90
2017-09-06T08:22:51.717Z,99.90
2017-09-06T08:25:20.159Z,99.90
2017-09-06T08:27:47.705Z,99.90
2017-09-06T08:30:15.243Z,99.90
2017-09-06T08:32:42.787Z,99.90
2017-09-06T08:35:10.331Z,99.90
2017-09-06T08:37:37.775Z,99.90
2017-09-06T08:40:05.318Z,99.90
2017-09-06T08:42:32.964Z,99.90
2017-09-06T08:45:00.508Z,99.90
2017-09-06T08:47:28.056Z,99.90
2017-09-06T08:49:55.513Z,99.90
2017-09-06T08:52:23.079Z,99.90
2017-09-06T08:54:50.624Z,99.90
2017-09-06T08:57:18.079Z,99.90
2017-09-06T08:59:45.692Z,99.90
2017-09-06T09:02:13.247Z,99.90
2017-09-06T09:04:40.795Z,99.90
2017-09-06T09:07:08.255Z,99.90
2017-09-06T09:09:35.711Z,99.90
2017-09-06T09:12:03.333Z,99.90
2017-09-06T09:14:30.800Z,99.90
2017-09-06T09:16:58.308Z,99.90
2017-09-06T09:19:25.760Z,99.90
2017-09-06T09:21:53.396Z,99.90
2017-09-06T09:24:20.942Z,99.90
2017-09-06T09:26:48.488Z,99.90
2017-09-06T09:29:15.948Z,99.90
2017-09-06T09:31:43.401Z,99.90
2017-09-06T09:34:11.112Z,99.90
2017-09-06T09:36:38.559Z,99.90
2017-09-06T09:39:06.110Z,99.70
2017-09-06T09:41:33.645Z,99.00
2017-09-06T09:44:01.188Z,99.10
2017-09-06T09:46:28.724Z,96.50
2017-09-06T09:48:56.355Z,96.80
2017-09-06T09:51:23.813Z,96.00
2017-09-06T09:53:51.263Z,95.50
2017-09-06T09:56:18.800Z,95.50
2017-09-06T09:58:46.276Z,95.10
2017-09-06T10:01:13.756Z,95.10
2017-09-06T10:03:41.228Z,94.80
2017-09-06T10:06:08.772Z,94.20
2017-09-06T10:08:36.320Z,94.60
2017-09-06T10:11:03.856Z,94.40
2017-09-06T10:13:31.400Z,92.90
2017-09-06T10:15:58.944Z,93.00
2017-09-06T10:18:26.396Z,93.10
2017-09-06T10:20:53.931Z,92.70
2017-09-06T10:23:21.573Z,91.80
2017-09-06T10:25:49.015Z,91.10
2017-09-06T10:28:16.460Z,91.00
2017-09-06T10:30:44.100Z,90.00
2017-09-06T10:33:11.543Z,88.60
2017-09-06T10:35:38.990Z,87.00
2017-09-06T10:38:06.532Z,86.40
2017-09-06T10:40:33.979Z,87.80
2017-09-06T10:43:01.520Z,86.90
2017-09-06T10:45:29.061Z,85.60
2017-09-06T10:47:56.579Z,86.80
2017-09-06T10:50:24.060Z,86.90
2017-09-06T10:52:51.510Z,86.80
2017-09-06T10:55:19.009Z,85.90
2017-09-06T10:57:46.476Z,86.10
2017-09-06T11:00:13.920Z,87.30
2017-09-06T11:02:41.430Z,86.40
2017-09-06T11:05:08.895Z,85.00
2017-09-06T11:07:36.348Z,85.40
2017-09-06T11:10:03.952Z,83.00
2017-09-06T11:12:31.499Z,83.20
2017-09-06T11:14:59.044Z,81.90
2017-09-06T11:17:26.587Z,81.50
2017-09-06T11:19:54.067Z,79.20
2017-09-06T11:22:21.515Z,76.30
2017-09-06T11:24:49.016Z,75.20
2017-09-06T11:27:16.561Z,75.70
2017-09-06T11:29:44.103Z,72.00
2017-09-06T11:32:11.643Z,68.10
2017-09-06T11:34:39.292Z,69.10
2017-09-06T11:37:06.832Z,67.70
2017-09-06T11:39:34.377Z,67.50
2017-09-06T11:42:01.925Z,68.80
2017-09-06T11:44:29.372Z,68.30
2017-09-06T11:46:56.904Z,69.30
2017-09-06T11:49:24.384Z,70.00
2017-09-06T11:51:51.924Z,71.40
2017-09-06T11:54:19.378Z,72.40
2017-09-06T11:56:46.908Z,70.60
2017-09-06T11:59:14.459Z,63.60
2017-09-06T12:01:41.928Z,64.20
2017-09-06T12:04:09.437Z,60.70
2017-09-06T12:06:36.980Z,61.20
2017-09-06T12:09:04.455Z,60.80
2017-09-06T12:11:31.897Z,62.80
2017-09-06T12:13:59.339Z,62.20
2017-09-06T12:16:26.824Z,59.70
2017-09-06T12:18:54.292Z,59.10
2017-09-06T12:21:21.812Z,57.70
2017-09-06T12:23:49.371Z,57.50
2017-09-06T12:26:16.836Z,58.40
2017-09-06T12:28:44.364Z,57.40
2017-09-06T12:31:11.836Z,58.30
2017-09-06T12:33:39.344Z,57.50
2017-09-06T12:36:06.891Z,58.60
2017-09-06T12:38:34.431Z,61.20
2017-09-06T12:41:01.976Z,62.30
2017-09-06T12:43:29.529Z,65.00
2017-09-06T12:45:56.976Z,68.10
2017-09-06T12:48:24.425Z,72.70
2017-09-06T12:50:52.100Z,73.70
2017-09-06T12:53:19.644Z,74.60
2017-09-06T12:55:47.217Z,74.50
2017-09-06T12:58:14.928Z,70.20
2017-09-06T13:00:42.376Z,67.30
2017-09-06T13:03:09.960Z,62.90
2017-09-06T13:05:37.568Z,61.00
2017-09-06T13:08:05.018Z,58.70
2017-09-06T13:10:32.548Z,58.30
2017-09-06T13:13:00.000Z,58.50
2017-09-06T13:15:27.532Z,58.10
2017-09-06T13:17:55.072Z,57.60
2017-09-06T13:20:23.335Z,66.70
2017-09-06T13:22:50.875Z,66.80
2017-09-06T13:25:18.359Z,72.20
2017-09-06T13:27:45.811Z,72.70
2017-09-06T13:30:13.264Z,74.80
2017-09-06T13:32:40.748Z,74.20
2017-09-06T13:35:08.195Z,74.40
2017-09-06T13:37:35.728Z,74.70
2017-09-06T13:40:03.208Z,74.80
2017-09-06T13:42:30.720Z,75.00
2017-09-06T13:44:58.257Z,74.70
2017-09-06T13:47:25.745Z,72.70
2017-09-06T13:49:53.188Z,72.50
2017-09-06T13:52:20.680Z,71.70
2017-09-06T13:54:48.224Z,72.20
2017-09-06T13:57:15.781Z,63.30
2017-09-06T13:59:43.317Z,61.70
2017-09-06T14:02:10.957Z,60.20
2017-09-06T14:04:38.408Z,61.90
2017-09-06T14:07:06.667Z,61.20
2017-09-06T14:09:34.314Z,61.20
2017-09-06T14:12:01.744Z,60.10
2017-09-06T14:14:29.186Z,59.90
2017-09-06T14:16:56.732Z,58.90
2017-09-06T14:19:24.276Z,58.10
2017-09-06T14:21:51.836Z,58.80
2017-09-06T14:24:19.363Z,59.10
2017-09-06T14:26:46.904Z,60.90
2017-09-06T14:29:14.448Z,59.20
2017-09-06T14:31:41.911Z,62.50
2017-09-06T14:34:09.355Z,63.50
2017-09-06T14:36:36.808Z,67.80
2017-09-06T14:39:04.994Z,70.20
2017-09-06T14:41:32.436Z,77.00
2017-09-06T14:43:59.884Z,75.40
2017-09-06T14:46:27.352Z,79.40
2017-09-06T14:48:54.800Z,74.70
2017-09-06T14:51:22.340Z,79.50
2017-09-06T14:53:49.979Z,78.80
2017-09-06T14:56:17.532Z,83.60
2017-09-06T14:58:45.080Z,90.00
2017-09-06T15:01:12.548Z,91.40
2017-09-06T15:03:40.061Z,94.50
2017-09-06T15:06:07.605Z,96.00
2017-09-06T15:08:35.153Z,98.40
2017-09-06T15:11:02.604Z,96.00
2017-09-06T15:13:30.236Z,96.30
2017-09-06T15:15:57.683Z,96.50
2017-09-06T15:18:25.219Z,95.60
2017-09-06T15:20:52.768Z,96.60
2017-09-06T15:23:20.232Z,95.20
2017-09-06T15:25:47.697Z,96.70
2017-09-06T15:28:15.392Z,95.20
2017-09-06T15:30:46.221Z,96.20
2017-09-06T15:33:14.678Z,98.00
2017-09-06T15:35:43.763Z,98.00
2017-09-06T15:38:12.846Z,96.60
2017-09-06T15:40:42.289Z,95.00
2017-09-06T15:43:09.967Z,96.00
2017-09-06T15:45:37.472Z,94.50
2017-09-06T15:48:04.917Z,93.80
2017-09-06T15:50:32.365Z,91.90
2017-09-06T15:52:59.824Z,84.80
2017-09-06T15:55:27.379Z,79.80
2017-09-06T15:57:54.820Z,79.00
2017-09-06T16:00:22.365Z,69.40
2017-09-06T16:02:49.811Z,68.80
2017-09-06T16:05:17.348Z,68.40
2017-09-06T16:07:44.888Z,70.20
2017-09-06T16:10:12.335Z,72.20
2017-09-06T16:12:39.783Z,74.90
2017-09-06T16:15:07.322Z,76.90
2017-09-06T16:17:34.860Z,78.10
2017-09-06T16:20:02.312Z,80.40
2017-09-06T16:22:29.764Z,82.50
2017-09-06T16:24:57.287Z,87.00
2017-09-06T16:27:24.931Z,90.40
2017-09-06T16:29:52.384Z,92.30
2017-09-06T16:32:19.920Z,93.50
2017-09-06T16:34:47.413Z,95.00
2017-09-06T16:37:14.901Z,95.10
2017-09-06T16:39:42.448Z,96.50
2017-09-06T16:42:10.087Z,96.20
2017-09-06T16:44:37.644Z,95.30
2017-09-06T16:47:05.449Z,95.50
2017-09-06T16:49:33.027Z,95.80
2017-09-06T16:52:00.572Z,95.50
2017-09-06T16:54:28.116Z,95.50
2017-09-06T16:56:55.772Z,95.80
2017-09-06T16:59:23.313Z,95.40
2017-09-06T17:01:50.852Z,94.90
2017-09-06T17:04:18.347Z,94.50
2017-09-06T17:06:45.804Z,94.80
2017-09-06T17:09:14.564Z,94.80
2017-09-06T17:11:44.398Z,94.80
2017-09-06T17:14:12.308Z,94.70
2017-09-06T17:16:40.665Z,95.10
2017-09-06T17:19:08.252Z,95.40
2017-09-06T17:21:35.903Z,95.20
2017-09-06T17:24:19.218Z,95.10
2017-09-06T17:26:46.759Z,95.40
2017-09-06T17:29:16.919Z,95.30
2017-09-06T17:31:45.307Z,95.80
2017-09-06T17:34:16.650Z,96.40
2017-09-06T17:36:44.208Z,96.10
2017-09-06T17:39:11.663Z,96.30
2017-09-06T17:41:39.495Z,96.20
2017-09-06T17:44:10.112Z,96.10
2017-09-06T17:46:41.428Z,96.10
2017-09-06T17:49:13.028Z,96.70
2017-09-06T17:51:45.305Z,96.00
2017-09-06T17:54:17.312Z,96.40
2017-09-06T17:56:44.837Z,96.40
2017-09-06T17:59:12.487Z,96.50
2017-09-06T18:01:40.516Z,97.20
2017-09-06T18:04:08.626Z,96.80
2017-09-06T18:06:39.148Z,96.80
2017-09-06T18:09:10.414Z,96.70
2017-09-06T18:11:42.569Z,97.00
2017-09-06T18:14:10.428Z,97.00
2017-09-06T18:16:41.687Z,97.70
2017-09-06T18:19:11.829Z,97.60
2017-09-06T18:21:41.525Z,97.70
2017-09-06T18:24:10.037Z,98.10
2017-09-06T18:26:37.617Z,98.00
2017-09-06T18:29:05.423Z,98.20
2017-09-06T18:31:32.985Z,98.20
2017-09-06T18:34:00.684Z,98.20
2017-09-06T18:36:29.030Z,98.30
2017-09-06T18:39:06.733Z,98.50
2017-09-06T18:41:36.012Z,98.40
2017-09-06T18:44:06.662Z,98.50
2017-09-06T18:46:35.337Z,98.70
2017-09-06T18:49:02.839Z,98.70
2017-09-06T18:51:35.639Z,99.10
2017-09-06T18:54:09.781Z,99.10
2017-09-06T18:56:41.364Z,99.00
2017-09-06T18:59:11.687Z,98.90
2017-09-06T19:01:45.768Z,99.00
2017-09-06T19:04:15.580Z,99.00
2017-09-06T19:06:49.531Z,99.10
2017-09-06T19:09:19.467Z,99.10
2017-09-06T19:11:47.184Z,99.10
2017-09-06T19:14:18.530Z,98.70
2017-09-06T19:17:06.995Z,98.80
2017-09-06T19:19:40.289Z,98.90
2017-09-06T19:22:18.181Z,99.10
2017-09-06T19:24:45.680Z,99.10
2017-09-06T19:27:13.256Z,99.00
2017-09-06T19:29:42.242Z,98.70
2017-09-06T19:32:11.184Z,98.70
2017-09-06T19:34:40.659Z,98.70
2017-09-06T19:37:17.515Z,99.10
2017-09-06T19:39:45.576Z,99.10
2017-09-06T19:42:13.120Z,99.20
2017-09-06T19:44:45.354Z,99.40
2017-09-06T19:47:14.911Z,99.50
2017-09-06T19:49:49.126Z,99.20
2017-09-06T19:52:16.668Z,99.00
2017-09-06T19:54:44.915Z,99.00
2017-09-06T19:57:15.495Z,99.00
2017-09-06T19:59:45.643Z,98.70
2017-09-06T20:02:17.243Z,98.40
2017-09-06T20:04:45.630Z,98.40
2017-09-06T20:07:17.105Z,98.10
2017-09-06T20:09:48.363Z,97.70
2017-09-06T20:12:18.248Z,97.80
2017-09-06T20:14:50.263Z,97.90
2017-09-06T20:17:18.101Z,97.40
2017-09-06T20:19:48.267Z,97.30
2017-09-06T20:22:15.723Z,97.20
2017-09-06T20:24:47.187Z,97.20
2017-09-06T20:27:17.304Z,97.40
2017-09-06T20:29:45.579Z,97.50
2017-09-06T20:32:13.187Z,97.70
2017-09-06T20:34:43.181Z,97.80
2017-09-06T20:37:13.511Z,98.00
2017-09-06T20:39:42.739Z,98.10
2017-09-06T20:42:10.283Z,98.20
2017-09-06T20:44:37.744Z,98.20
2017-09-06T20:47:05.224Z,98.30
2017-09-06T20:49:32.680Z,98.50
2017-09-06T20:52:00.153Z,98.70
2017-09-06T20:54:27.611Z,98.80
2017-09-06T20:56:55.131Z,98.90
2017-09-06T20:59:22.765Z,98.90
2017-09-06T21:01:50.623Z,99.10
2017-09-06T21:04:20.337Z,99.20
2017-09-06T21:06:47.813Z,99.40
2017-09-06T21:09:15.300Z,99.40
2017-09-06T21:11:43.683Z,99.90
2017-09-06T21:14:11.216Z,99.80
2017-09-06T21:16:38.776Z,99.90
2017-09-06T21:19:06.504Z,99.90
2017-09-06T21:21:34.044Z,99.90
2017-09-06T21:24:01.587Z,99.40
2017-09-06T21:26:29.232Z,99.50
2017-09-06T21:28:56.703Z,99.60
2017-09-06T21:31:24.193Z,99.60
2017-09-06T21:33:51.759Z,99.70
2017-09-06T21:36:19.217Z,99.70
2017-09-06T21:38:46.883Z,99.70
2017-09-06T21:41:14.387Z,99.60
2017-09-06T21:43:41.992Z,99.30
2017-09-06T21:46:22.508Z,99.30
2017-09-06T21:48:51.276Z,99.30
2017-09-06T21:51:18.858Z,99.60
2017-09-06T21:53:47.015Z,99.30
2017-09-06T21:56:14.604Z,99.40
2017-09-06T21:58:42.833Z,99.00
2017-09-06T22:01:10.382Z,98.90
2017-09-06T22:03:44.481Z,98.20
2017-09-06T22:06:14.912Z,98.40
2017-09-06T22:08:46.155Z,98.20
2017-09-06T22:11:15.772Z,98.30
2017-09-06T22:13:45.474Z,98.10
2017-09-06T22:16:20.701Z,98.00
2017-09-06T22:18:48.296Z,98.10
2017-09-06T22:21:15.842Z,98.10
2017-09-06T22:23:44.845Z,98.20
2017-09-06T22:26:12.465Z,98.00
2017-09-06T22:29:03.552Z,98.00
2017-09-06T22:31:31.312Z,98.10
2017-09-06T22:33:59.536Z,98.00
2017-09-06T22:36:27.012Z,97.70
2017-09-06T22:38:55.467Z,98.10
2017-09-06T22:41:23.011Z,98.10
2017-09-06T22:43:51.245Z,98.40
2017-09-06T22:46:18.771Z,98.20
2017-09-06T22:48:46.256Z,98.10
2017-09-06T22:51:13.716Z,98.00
2017-09-06T22:53:41.940Z,98.10
2017-09-06T22:56:09.432Z,98.10
2017-09-06T22:58:36.945Z,98.20
2017-09-06T23:01:05.204Z,98.10
2017-09-06T23:03:33.669Z,98.50
2017-09-06T23:06:01.123Z,98.10
2017-09-06T23:08:29.368Z,98.20
2017-09-06T23:10:56.916Z,98.20
2017-09-06T23:13:25.131Z,98.20
2017-09-06T23:15:52.621Z,98.40
2017-09-06T23:18:20.085Z,98.40
2017-09-06T23:20:47.658Z,98.20
2017-09-06T23:23:15.144Z,98.20
2017-09-06T23:25:43.507Z,98.90
2017-09-06T23:28:11.764Z,98.70
2017-09-06T23:30:39.224Z,98.70
2017-09-06T23:33:07.574Z,99.10
2017-09-06T23:35:35.034Z,99.10
2017-09-06T23:38:03.276Z,99.10
2017-09-06T23:40:31.632Z,99.20
2017-09-06T23:42:59.236Z,99.20
2017-09-06T23:45:26.681Z,99.20
2017-09-06T23:47:58.296Z,99.00
2017-09-06T23:50:26.904Z,98.80
2017-09-06T23:52:54.415Z,98.80
2017-09-06T23:55:21.900Z,98.80
2017-09-06T23:57:49.352Z,98.90
